Latest Coastal Weather Observations for Wynyard

IDT60701

Issued at 5:41 am EDT Sunday 29 March 2015 (issued every 10 minutes, with the page automatically refreshed every 10 minutes)

About coastal observations | Map of coastal stations | Coastal observations for TAS | Marine services | Other Formats
Station Details ID: 091107 Name: WYNYARD AIRPORT Lat: -41.00 Lon: 145.73 Height: 12.0 m
Data from the previous 72 hours. | See also: Recent months at Wynyard
Date/Time
EDT
Temp

°C
Wind Pressure Rain
since 9am
mm
Weather Cloud Vis
km
Sea
Height
m
Swell
Dir
 
Speed
knots
Gust
knots
hPa Trend Height
m
Period
s
Dir
29/05:30am 13.1 W 9 11 1018.3 - 0.0 - Cloudy 10 - - - -
29/05:00am 13.1 NW 6 7 1018.1 - 0.0 - Partly cloudy 10 - - - -
29/04:30am 12.6 WNW 5 7 1018.6 - 0.0 - Cloudy 10 - - - -
29/04:00am 12.5 W 8 9 1018.3 - 0.0 - Cloudy 10 - - - -
29/03:30am 12.6 WNW 9 10 1018.3 - 0.0 - Cloudy 10 - - - -
29/03:00am 12.4 W 7 9 1018.6 - 0.0 - Cloudy 10 - - - -
29/02:30am 12.2 W 6 9 1018.8 - 0.0 - Cloudy 10 - - - -
29/02:00am 12.0 SSW 4 5 1019.2 - 0.0 - Cloudy 10 - - - -
29/01:30am 11.8 SSW 3 4 1019.2 - 0.0 - Cloudy 10 - - - -
29/01:00am 11.4 W 3 4 1019.6 - 0.0 - Cloudy 10 - - - -
29/12:30am 11.4 WSW 3 4 1019.8 - 0.0 - Cloudy 10 - - - -
 
Date/Time
EDT
Temp

°C
Wind Pressure Rain
since 9am
mm
Weather Cloud Vis
km
Sea
Height
m
Swell
Dir
 
Speed
knots
Gust
knots
hPa Trend Height
m
Period
s
Dir
28/11:30pm 11.4 W 4 5 1020.4 - 0.0 - Cloudy 10 - - - -
28/11:00pm 11.2 SW 4 5 1020.6 - 0.0 - Partly cloudy 10 - - - -
28/10:30pm 10.7 W 7 8 1020.8 - 0.0 - Partly cloudy 10 - - - -
28/10:00pm 10.2 W 5 7 1020.6 - 0.0 - - 10 - - - -
28/09:30pm 11.6 W 8 10 1020.6 - 0.0 - Partly cloudy 10 - - - -
28/09:00pm 11.9 W 12 16 1020.5 - 0.0 - - 10 - - - -
28/08:30pm 12.4 WSW 10 13 1020.3 - 0.0 - Partly cloudy 10 - - - -
28/08:00pm 13.1 WSW 11 15 1020.1 - 0.0 - Partly cloudy 10 - - - -
28/07:30pm 13.7 WSW 11 16 1020.0 - 0.0 - Partly cloudy 10 - - - -
28/07:00pm 14.0 WSW 10 14 1020.0 - 0.0 - Cloudy 10 - - - -
28/06:30pm 14.2 WSW 11 16 1019.9 - 0.0 - Partly cloudy 10 - - - -
28/06:00pm 15.4 W 14 18 1019.8 - 0.0 - Partly cloudy 10 - - - -
28/05:30pm 16.6 W 11 14 1019.9 - 0.0 - - 10 - - - -
28/05:00pm 15.5 W 14 18 1020.0 - 0.0 - Partly cloudy 10 - - - -
28/04:30pm 16.7 W 14 20 1020.1 - 0.0 - Partly cloudy 10 - - - -
28/04:00pm 17.5 W 16 21 1020.0 - 0.0 - - 10 - - - -
28/03:30pm 17.1 WNW 14 18 1020.1 - 0.0 - Partly cloudy 10 - - - -
28/03:00pm 17.1 W 14 19 1020.3 - 0.0 - Mostly cloudy 10 - - - -
28/02:30pm 18.1 W 15 19 1020.5 - 0.0 - Partly cloudy 10 - - - -
28/02:00pm 17.5 W 12 16 1020.9 - 0.0 - Partly cloudy 10 - - - -
28/01:30pm 17.5 W 14 18 1021.3 - 0.0 - Partly cloudy 10 - - - -
28/01:00pm 16.4 WNW 12 17 1021.6 - 0.0 - Cloudy 10 - - - -
28/12:30pm 16.7 W 11 15 1021.9 - 0.0 - Partly cloudy 10 - - - -
28/12:00pm 15.6 W 13 17 1022.3 - 0.0 - Partly cloudy 10 - - - -
28/11:30am 15.9 W 9 13 1022.4 - 0.0 - Partly cloudy 10 - - - -
28/11:00am 14.7 WSW 10 15 1022.7 - 0.0 - Partly cloudy 10 - - - -
28/10:30am 14.7 W 9 11 1022.9 - 0.0 - Partly cloudy 10 - - - -
28/10:00am 13.5 W 9 11 1023.0 - 0.0 - - 10 - - - -
28/09:30am 13.2 W 8 10 1023.0 - 0.0 - - 10 - - - -
28/09:00am 12.0 W 7 9 1022.8 - 0.0 - - 10 - - - -
28/08:30am 11.1 WNW 7 8 1022.6 - 0.0 - Partly cloudy 10 - - - -
28/08:00am 11.4 WNW 7 8 1022.4 - 0.0 - Cloudy 10 - - - -
28/07:30am 11.3 W 5 6 1022.2 - 0.0 - Cloudy 10 - - - -
28/07:00am 11.3 W 5 7 1021.9 - 0.0 - Cloudy 10 - - - -
28/06:30am 11.0 W 5 6 1021.7 - 0.0 - Cloudy 10 - - - -
28/06:00am 11.4 WSW 5 7 1021.6 - 0.0 - Mostly cloudy 10 - - - -
28/05:30am 11.6 WSW 6 9 1021.5 - 0.0 - Cloudy 10 - - - -
28/05:00am 11.8 WSW 7 9 1021.3 - 0.0 - Cloudy 10 - - - -
28/04:30am 11.6 WSW 6 8 1021.3 - 0.0 - Cloudy 10 - - - -
28/04:00am 11.3 W 6 7 1021.3 - 0.0 - Cloudy 10 - - - -
28/03:30am 11.4 WNW 6 9 1021.4 - 0.0 - Cloudy 10 - - - -
28/03:00am 11.0 W 7 8 1021.6 - 0.0 - Cloudy 10 - - - -
28/02:30am 11.1 W 7 8 1021.7 - 0.0 - Cloudy 10 - - - -
28/02:00am 11.0 W 7 8 1021.7 - 0.0 - Cloudy 10 - - - -
28/01:30am 10.9 W 6 8 1021.7 - 0.0 - Cloudy 10 - - - -
28/01:00am 10.0 W 8 9 1021.8 - 0.0 - Partly cloudy 10 - - - -
28/12:30am 9.1 W 7 8 1021.9 - 0.0 - Partly cloudy 10 - - - -
28/12:00am 12.0 WNW 6 7 1022.0 - 0.0 - Cloudy 10 - - - -
 
Date/Time
EDT
Temp

°C
Wind Pressure Rain
since 9am
mm
Weather Cloud Vis
km
Sea
Height
m
Swell
Dir
 
Speed
knots
Gust
knots
hPa Trend Height
m
Period
s
Dir
27/11:30pm 11.4 SW 3 5 1022.0 - 0.0 - Cloudy 10 - - - -
27/11:00pm 10.3 WSW 5 7 1022.0 - 0.0 - Partly cloudy 10 - - - -
27/10:30pm 10.6 SW 4 5 1021.9 - 0.0 - - 10 - - - -
27/10:00pm 11.5 NW 5 7 1021.7 - 0.0 - Partly cloudy 10 - - - -
27/09:30pm 11.1 W 7 9 1021.4 - 0.0 - - 10 - - - -
27/09:00pm 12.1 W 10 12 1020.9 - 0.0 - Partly cloudy 10 - - - -
27/08:30pm 12.6 NW 7 9 1020.7 - 0.0 - - 10 - - - -
27/08:00pm 12.3 W 8 10 1020.0 - 0.0 - - 10 - - - -
27/07:30pm 13.3 W 11 14 1019.4 - 0.0 - - 10 - - - -
27/07:00pm 14.2 WSW 10 13 1018.8 - 0.0 - - 10 - - - -
27/06:30pm 16.1 SW 8 15 1018.4 - 0.0 - Partly cloudy 10 - - - -
27/06:00pm 16.7 SSW 13 21 1017.7 - 0.0 - - 10 - - - -
27/05:31pm 16.8 SSW 15 25 1017.2 - 0.0 - - 10 - - - -
27/05:30pm 16.7 SSW 14 25 1017.2 - 0.0 - - 10 - - - -
27/05:00pm 17.3 SSW 17 28 1016.7 - 0.0 - - 10 - - - -
27/04:30pm 17.1 SSW 17 28 1016.7 - 0.0 - - 10 - - - -
27/04:00pm 17.2 SW 19 39 1016.3 - 0.0 - Partly cloudy 10 - - - -
27/03:38pm 18.3 SSW 15 25 1016.1 - 0.0 - Partly cloudy 10 - - - -
27/03:30pm 18.6 SSW 13 19 1016.1 - 0.0 - Partly cloudy 10 - - - -
27/03:20pm 18.0 SSW 16 26 1015.9 - 0.0 - Partly cloudy 10 - - - -
27/03:00pm 17.8 SW 20 27 1015.8 - 0.0 - Partly cloudy 10 - - - -
27/02:30pm 18.1 SSW 17 29 1015.6 - 0.0 - Partly cloudy 10 - - - -
27/02:02pm 17.4 SSW 20 30 1015.6 - 0.0 - Partly cloudy 10 - - - -
27/02:00pm 17.3 SSW 21 30 1015.6 - 0.0 - Partly cloudy 10 - - - -
27/01:44pm 16.8 SW 19 30 1015.6 - 0.0 - Partly cloudy 10 - - - -
27/01:30pm 17.0 SW 16 24 1015.8 - 0.0 - Partly cloudy 10 - - - -
27/01:03pm 16.7 SW 15 26 1015.8 - 0.0 - Partly cloudy 10 - - - -
27/01:00pm 16.6 SW 14 26 1015.8 - 0.0 - Partly cloudy 10 - - - -
27/12:44pm 16.0 SW 15 25 1015.7 - 0.0 - Partly cloudy 10 - - - -
27/12:30pm 15.5 SW 9 13 1015.9 - 0.0 - Partly cloudy 10 - - - -
27/12:00pm 15.0 SW 14 25 1015.7 - 0.0 - Cloudy 10 - - - -
27/11:30am 15.1 SW 13 18 1015.2 - 0.0 - - 10 - - - -
27/11:00am 13.8 WSW 12 16 1014.8 - 0.0 - - 10 - - - -
27/10:30am 12.8 W 9 12 1014.3 - 0.0 - - 10 - - - -
27/10:00am 12.0 W 5 8 1014.4 - 0.0 - Partly cloudy 10 - - - -
27/09:30am 11.2 W 7 10 1013.9 - 0.0 - Cloudy 10 - - - -
27/09:00am 9.9 WNW 7 8 1013.8 - 22.0 - Cloudy 10 - - - -
27/08:30am 9.8 WNW 6 12 1013.4 - 22.0 - Cloudy 10 - - - -
27/08:00am 9.0 WNW 5 8 1013.3 - 22.0 - Cloudy 10 - - - -
27/07:30am 8.8 WNW 9 11 1012.9 - 22.0 - - 10 - - - -
27/07:00am 8.9 WSW 7 12 1012.5 - 22.0 - - 10 - - - -
27/06:30am 8.5 W 8 10 1012.3 - 22.0 - - 10 - - - -
27/06:00am 8.4 SW 9 12 1011.7 - 22.0 - Partly cloudy 10 - - - -
27/05:30am 8.5 SSW 9 14 1011.2 - 22.0 - - 10 - - - -
27/05:00am 7.6 SW 7 10 1010.4 - 22.0 - - 10 - - - -
27/04:30am 7.2 WSW 7 9 1010.1 - 22.0 - Partly cloudy 10 - - - -
27/04:00am 7.6 SSW 1 6 1010.1 - 22.0 - Partly cloudy 10 - - - -
27/03:30am 8.2 S 3 7 1010.4 - 22.0 - Partly cloudy 10 - - - -
27/03:21am 8.3 WNW 5 8 1010.5 - 22.0 - Partly cloudy 10 - - - -
27/03:00am 8.4 NW 3 4 1010.5 - 21.2 Rain Cloudy 4 - - - -
27/02:59am 8.4 NW 3 4 1010.5 - 21.0 - Partly cloudy 5 - - - -
27/02:30am 8.2 W 5 7 1011.2 - 20.0 - Partly cloudy 10 - - - -
27/02:00am 8.0 W 8 9 1011.1 - 20.0 - Partly cloudy 10 - - - -
27/01:30am 7.4 W 7 8 1011.5 - 20.0 - Cloudy 10 - - - -
27/01:00am 7.1 WNW 6 8 1011.7 - 19.6 - Partly cloudy 10 - - - -
27/12:30am 7.5 WNW 5 5 1011.7 - 19.6 - - 10 - - - -
27/12:00am 7.5 WSW 5 6 1011.6 - 19.6 - - 10 - - - -
 
Date/Time
EDT
Temp

°C
Wind Pressure Rain
since 9am
mm
Weather Cloud Vis
km
Sea
Height
m
Swell
Dir
 
Speed
knots
Gust
knots
hPa Trend Height
m
Period
s
Dir
26/11:30pm 7.5 W 7 9 1011.5 - 19.6 - - 10 - - - -
26/11:00pm 8.4 W 6 9 1011.5 - 19.6 - - 10 - - - -
26/10:30pm 9.0 S 5 7 1011.4 - 19.6 - - 10 - - - -
26/10:00pm 9.5 S 5 7 1011.3 - 19.6 - - 10 - - - -
26/09:30pm 9.5 S 3 7 1010.7 - 19.6 - Partly cloudy 10 - - - -
26/09:00pm 9.6 E 3 5 1010.4 - 19.4 Recent precip. Cloudy 10 - - - -
26/08:30pm 9.6 S 6 9 1010.7 - 19.4 - Partly cloudy 10 - - - -
26/08:00pm 9.5 S 7 10 1010.8 - 19.2 - Partly cloudy 10 - - - -
26/07:30pm 9.7 SSE 8 10 1010.9 - 18.2 - Partly cloudy 10 - - - -
26/07:00pm 10.0 E 5 9 1011.3 - 16.2 - Partly cloudy 3 - - - -
26/06:53pm 10.0 NE 6 9 1011.3 - 15.4 - Partly cloudy 5 - - - -
26/06:30pm 10.3 SSE 7 9 1010.8 - 14.4 - Partly cloudy 10 - - - -
26/06:00pm 10.3 SE 7 9 1011.0 - 14.0 Recent precip. Cloudy 9 - - - -
26/05:46pm 10.0 ESE 9 13 1011.0 - 14.0 - Partly cloudy 10 - - - -
26/05:30pm 10.0 E 8 13 1011.0 - 14.0 - Partly cloudy 3 - - - -
26/05:00pm 10.6 ESE 5 7 1011.1 - 12.6 - Partly cloudy 0.8 - - - -
26/04:30pm 11.4 ENE 4 5 1011.1 - 5.8 - Partly cloudy 2 - - - -
26/04:07pm 11.9 N 8 18 1011.3 - 3.8 - Partly cloudy 5 - - - -
26/04:00pm 13.1 SSW 2 7 1011.4 - 3.0 - Partly cloudy 10 - - - -
26/03:30pm 13.1 W 7 9 1011.5 - 3.0 - Partly cloudy 10 - - - -
26/03:00pm 13.1 NE 4 6 1011.4 - 2.6 - Partly cloudy 10 - - - -
26/02:30pm 14.0 NE 7 9 1011.7 - 2.6 - - 10 - - - -
26/02:00pm 13.9 SE 3 6 1011.9 - 2.6 - Partly cloudy 10 - - - -
26/01:30pm 13.1 NE 4 6 1012.0 - 2.6 - Partly cloudy 10 - - - -
26/01:00pm 12.0 NNE 5 8 1012.5 - 2.4 - Partly cloudy 10 - - - -
26/12:30pm 12.0 SSE 3 5 1012.4 - 2.4 - Partly cloudy 10 - - - -
26/12:28pm 12.0 SSE 4 5 1012.4 - 2.4 - Partly cloudy 10 - - - -
26/12:03pm 11.6 WNW 4 8 1012.6 - 0.8 - Partly cloudy 5 - - - -
26/12:00pm 12.1 N 2 7 1012.6 - 0.2 Rain Cloudy 10 - - - -
26/11:30am 12.3 ENE 4 6 1012.4 - 0.0 - Partly cloudy 10 - - - -
26/11:00am 12.0 ENE 2 6 1012.5 - 0.0 - Partly cloudy 10 - - - -
26/10:30am 12.0 SE 4 7 1012.4 - 0.0 - - 10 - - - -
26/10:00am 10.1 SSE 3 5 1012.1 - 0.0 - Partly cloudy 10 - - - -
26/09:30am 8.7 CALM 0 3 1012.2 - 0.0 - Partly cloudy 10 - - - -
26/09:00am 8.8 SW 4 5 1012.4 - 5.4 Recent precip. Cloudy 10 - - - -
26/08:30am 8.7 SSE 5 7 1012.0 - 5.4 - Partly cloudy 10 - - - -
26/08:04am 8.7 SSE 5 7 1012.1 - 5.4 - Partly cloudy 10 - - - -
26/08:00am 8.7 SE 6 11 1012.0 - 5.2 - Partly cloudy 10 - - - -
26/07:38am 9.0 SW 11 16 1012.5 - 2.6 - Partly cloudy 5 - - - -
26/07:30am 9.1 SSW 7 10 1011.9 - 1.8 - Partly cloudy 9 - - - -
26/07:00am 9.0 S 4 5 1011.5 - 1.4 - Partly cloudy 10 - - - -
26/06:30am 8.9 ENE 1 3 1011.5 - 1.4 - Partly cloudy 10 - - - -
26/06:00am 9.2 ENE 4 5 1011.3 - 1.2 Rain Cloudy 10 - - - -

Other Formats:

Comma delimited format used in spreadsheet applications
http://www.bom.gov.au/fwo/IDT60701/IDT60701.95957.axf

JavaScript Object Notation format (JSON) in row-major order
http://www.bom.gov.au/fwo/IDT60701/IDT60701.95957.json